Vesthavet — LM6629 — position and weather

sailwx.info

Track history (hours):
 
Tides and Currents Weather Stations Pressure Air Temp Water Temp Dewpoint Dewpoint Depression Visibility Wind Speed Wind Dir Waves Ship Positions

Vesthavet

Last reported at 2017-Nov-16 09:04 UTC. Time now 2017-Dec-11 00:25 UTC.
Position N 70°51' E 029°06'.
Warning: this ship's position is 24 days out of date.

Length 11 m.

Type: Fishing. MMSI: 257342820.

Date/timePositionNaut miles runAvg speedWind from/ knotsBaromVisibWave heightAir tempDewpointWater temp
2017-Nov-16 09:04N 70°51' E 029°06'0 0.0
2017-Nov-16 08:58N 70°51' E 029°06'0 0.0
2017-Nov-16 08:28N 70°51' E 029°06'0 0.0
2017-Nov-16 07:57N 70°51' E 029°06'0 0.0
2017-Nov-16 07:24N 70°51' E 029°06'0 0.0
2017-Nov-16 06:57N 70°51' E 029°06'0 0.0
2017-Nov-16 06:30N 70°51' E 029°06'0 0.0
2017-Nov-16 06:00N 70°51' E 029°06'0 0.0
2017-Nov-16 05:30N 70°51' E 029°06'0 0.0
2017-Nov-16 05:00N 70°51' E 029°06'0 0.0
2017-Nov-16 04:30N 70°51' E 029°06'0 0.0
2017-Nov-16 04:00N 70°51' E 029°06'0 0.0
2017-Nov-16 03:30N 70°51' E 029°06'0 0.0
2017-Nov-16 03:00N 70°51' E 029°06'0 0.0
2017-Nov-16 02:27N 70°51' E 029°06'0 0.0
2017-Nov-16 02:00N 70°51' E 029°06'0 0.0
2017-Nov-16 01:30N 70°51' E 029°06'0 0.0
2017-Nov-16 01:00N 70°51' E 029°06'0 0.0
2017-Nov-16 00:30N 70°51' E 029°06'0 0.0
2017-Nov-16 00:00N 70°51' E 029°06'0 0.0
2017-Nov-15 23:30N 70°51' E 029°06'0 0.0
2017-Nov-15 23:00N 70°51' E 029°06'0 0.0
2017-Nov-15 22:30N 70°51' E 029°06'0 0.0
2017-Nov-15 22:00N 70°51' E 029°06'0 0.0
2017-Nov-15 21:30N 70°51' E 029°06'0 0.0
2017-Nov-15 21:00N 70°51' E 029°06'0 0.0
2017-Nov-15 20:30N 70°51' E 029°06'0 0.0
2017-Nov-15 20:00N 70°51' E 029°06'0 0.0
2017-Nov-15 19:30N 70°51' E 029°06'0 0.0
2017-Nov-15 18:57N 70°51' E 029°06'0 0.0
2017-Nov-15 18:30N 70°51' E 029°06'0 0.0
2017-Nov-14 21:30N 70°51' E 029°06'0 0.0
2017-Nov-14 21:00N 70°51' E 029°06'0 0.0
2017-Nov-14 20:30N 70°51' E 029°06'0 0.0
2017-Nov-14 19:59N 70°51' E 029°06'0 0.0
2017-Nov-14 19:29N 70°51' E 029°06'0 0.0
2017-Nov-14 18:59N 70°51' E 029°06'0 0.0
2017-Nov-14 18:29N 70°51' E 029°06'0 0.0
2017-Nov-14 17:59N 70°51' E 029°06'0 0.0
2017-Nov-14 17:29N 70°51' E 029°06'0 0.0
2017-Nov-14 16:59N 70°51' E 029°06'0 0.0
2017-Nov-14 16:29N 70°51' E 029°06'0 0.0
2017-Nov-14 10:44N 70°51' E 029°06'0 0.0
2017-Nov-14 10:29N 70°51' E 029°06'0 0.0
2017-Nov-14 09:59N 70°51' E 029°06'0 0.0
2017-Nov-14 09:29N 70°51' E 029°06'0 0.0
2017-Nov-14 08:59N 70°51' E 029°06'0 0.0
2017-Nov-14 08:29N 70°51' E 029°06'0 0.0
2017-Nov-14 07:59N 70°51' E 029°06'0 0.0
2017-Nov-14 07:29N 70°51' E 029°06'0 0.0
2017-Nov-14 06:59N 70°51' E 029°06'0 0.0
2017-Nov-14 06:29N 70°51' E 029°06'0 0.0
2017-Nov-14 05:59N 70°51' E 029°06'0 0.0
2017-Nov-14 05:29N 70°51' E 029°06'0 0.0
2017-Nov-14 04:59N 70°51' E 029°06'0 0.0
2017-Nov-14 04:29N 70°51' E 029°06'0 0.0
2017-Nov-14 03:59N 70°51' E 029°06'0 0.0
2017-Nov-14 03:29N 70°51' E 029°06'0 0.0
2017-Nov-14 02:59N 70°51' E 029°06'0 0.0
2017-Nov-14 02:29N 70°51' E 029°06'0 0.0
2017-Nov-14 01:59N 70°51' E 029°06'0 0.0
2017-Nov-14 01:29N 70°51' E 029°06'0 0.0
2017-Nov-14 00:59N 70°51' E 029°06'0 0.0
2017-Nov-14 00:29N 70°51' E 029°06'0 0.0
2017-Nov-13 23:59N 70°51' E 029°06'0 0.0
2017-Nov-13 23:29N 70°51' E 029°06'0 0.0
2017-Nov-13 22:59N 70°51' E 029°06'0 0.0
2017-Nov-13 22:29N 70°51' E 029°06'0 0.0
2017-Nov-13 21:59N 70°51' E 029°06'10 0.5
2017-Nov-13 01:59N 70°53' E 029°36'3 7.1
2017-Nov-13 01:30N 70°52' E 029°25'4 7.4
2017-Nov-13 01:00N 70°52' E 029°14'3 5.2
2017-Nov-13 00:29N 70°52' E 029°06'0 0.2
2017-Nov-13 00:00N 70°51' E 029°06'0 0.0
2017-Nov-12 23:30N 70°51' E 029°06'0 0.0
2017-Nov-12 23:00N 70°51' E 029°06'0 0.0
2017-Nov-12 22:30N 70°51' E 029°06'0 0.0
2017-Nov-12 22:00N 70°51' E 029°06'0 0.0
2017-Nov-12 21:30N 70°51' E 029°06'0 0.0
2017-Nov-12 21:00N 70°51' E 029°06'0 0.0
2017-Nov-12 20:30N 70°51' E 029°06'0 0.0
2017-Nov-12 20:00N 70°51' E 029°06'0 0.0
2017-Nov-12 19:30N 70°51' E 029°06'0 0.0
2017-Nov-12 19:00N 70°51' E 029°06'0 0.0
2017-Nov-12 18:30N 70°51' E 029°06'0 0.0
2017-Nov-12 18:00N 70°51' E 029°06'0 0.0
2017-Nov-12 17:24N 70°51' E 029°06'0 0.0
2017-Nov-12 17:00N 70°51' E 029°06'0 0.0
2017-Nov-12 16:30N 70°51' E 029°06'0 0.0
2017-Nov-12 16:00N 70°51' E 029°06'0 0.0
2017-Nov-12 15:30N 70°51' E 029°06'0 0.0
2017-Nov-12 15:00N 70°51' E 029°06'0 0.0
2017-Nov-12 14:30N 70°51' E 029°06'0 0.0
2017-Nov-12 14:00N 70°51' E 029°06'0 0.0
2017-Nov-12 13:30N 70°51' E 029°06'0 0.0
2017-Nov-12 13:00N 70°51' E 029°06'0 0.0
2017-Nov-12 12:30N 70°51' E 029°06'0 0.0
2017-Nov-12 12:00N 70°51' E 029°06'0 0.0
2017-Nov-12 11:30N 70°51' E 029°06'0 0.0
2017-Nov-12 11:00N 70°51' E 029°06'0 0.0
2017-Nov-12 10:30N 70°51' E 029°06'0 0.0
2017-Nov-12 10:00N 70°51' E 029°06'0 0.0
2017-Nov-12 09:27N 70°51' E 029°06'0 0.0
2017-Nov-12 09:00N 70°51' E 029°06'0 0.0
2017-Nov-12 08:30N 70°51' E 029°06'0 0.0
2017-Nov-12 08:00N 70°51' E 029°06'0 0.0
2017-Nov-12 07:29N 70°51' E 029°06'0 0.0
2017-Nov-12 07:00N 70°51' E 029°06'0 0.0
2017-Nov-12 06:29N 70°51' E 029°06'0 0.0
2017-Nov-12 05:59N 70°51' E 029°06'0 0.0
2017-Nov-12 05:29N 70°51' E 029°06'0 0.0
2017-Nov-12 04:59N 70°51' E 029°06'0 0.0
2017-Nov-12 04:29N 70°51' E 029°06'0 0.0
2017-Nov-12 03:59N 70°51' E 029°06'0 0.0
2017-Nov-12 03:29N 70°51' E 029°06'0 0.0
2017-Nov-12 02:59N 70°51' E 029°06'0 0.0
2017-Nov-12 02:29N 70°51' E 029°06'0 0.0
2017-Nov-12 01:59N 70°51' E 029°06'0 0.0
2017-Nov-12 01:29N 70°51' E 029°06'0 0.0
2017-Nov-12 00:59N 70°51' E 029°06'0 0.0
2017-Nov-12 00:30N 70°51' E 029°06'0 0.0
2017-Nov-12 00:00N 70°51' E 029°06'0 0.0
2017-Nov-11 23:30N 70°51' E 029°06'0 0.0
2017-Nov-11 23:00N 70°51' E 029°06'0 0.0
2017-Nov-11 22:30N 70°51' E 029°06'0 0.0
2017-Nov-11 22:00N 70°51' E 029°06'0 0.0
2017-Nov-11 21:30N 70°51' E 029°06'0 0.0
2017-Nov-11 21:00N 70°51' E 029°06'0 0.0
2017-Nov-11 20:30N 70°51' E 029°06'0 0.0
2017-Nov-11 20:00N 70°51' E 029°06'0 0.0
2017-Nov-11 19:30N 70°51' E 029°06'0 0.0
2017-Nov-11 19:00N 70°51' E 029°06'0 0.0
2017-Nov-11 18:30N 70°51' E 029°06'0 0.0
2017-Nov-11 18:00N 70°51' E 029°06'0 0.0
2017-Nov-11 17:30N 70°51' E 029°06'0 0.0
2017-Nov-11 17:00N 70°51' E 029°06'0 0.0
2017-Nov-11 16:30N 70°51' E 029°06'0 0.0
2017-Nov-11 16:00N 70°51' E 029°06'0 0.0
2017-Nov-11 15:30N 70°51' E 029°06'0 0.0
2017-Nov-11 15:00N 70°51' E 029°06'0 0.0
2017-Nov-11 14:30N 70°51' E 029°06'0 0.0
2017-Nov-11 14:00N 70°51' E 029°06'0 0.0
2017-Nov-11 13:30N 70°51' E 029°06'0 0.0
2017-Nov-11 13:00N 70°51' E 029°06'0 0.0
2017-Nov-11 12:30N 70°51' E 029°06'0 0.0
2017-Nov-11 12:00N 70°51' E 029°06'0 0.0
2017-Nov-11 11:30N 70°51' E 029°06'0 0.0
2017-Nov-11 11:00N 70°51' E 029°06'0 0.0
2017-Nov-11 10:30N 70°51' E 029°06'0 0.0
2017-Nov-11 10:00N 70°51' E 029°06'0 0.0
2017-Nov-11 09:30N 70°51' E 029°06'0 0.0
2017-Nov-11 09:00N 70°51' E 029°06'0 0.0
2017-Nov-11 08:30N 70°51' E 029°06'0 0.0
2017-Nov-11 08:00N 70°51' E 029°06'0 0.0
2017-Nov-11 07:30N 70°51' E 029°06'0 0.0
2017-Nov-11 07:00N 70°51' E 029°06'0 0.0
2017-Nov-11 06:30N 70°51' E 029°06'0 0.0
2017-Nov-11 06:00N 70°51' E 029°06'0 0.0
2017-Nov-11 05:30N 70°51' E 029°06'0 0.0
2017-Nov-11 05:00N 70°51' E 029°06'0 0.0
2017-Nov-11 04:30N 70°51' E 029°06'0 0.0
2017-Nov-11 04:00N 70°51' E 029°06'0 0.0
2017-Nov-11 03:30N 70°51' E 029°06'0 0.0
2017-Nov-11 03:00N 70°51' E 029°06'0 0.0
2017-Nov-11 02:30N 70°51' E 029°06'0 0.0
2017-Nov-11 02:00N 70°51' E 029°06'0 0.0
2017-Nov-11 01:30N 70°51' E 029°06'0 0.0
2017-Nov-11 01:00N 70°51' E 029°06'0 0.0
2017-Nov-11 00:30N 70°51' E 029°06'0 0.0
2017-Nov-11 00:00N 70°51' E 029°06'0 0.0
2017-Nov-10 23:30N 70°51' E 029°06'0 0.0
2017-Nov-10 23:00N 70°51' E 029°06'0 0.0
2017-Nov-10 22:30N 70°51' E 029°06'0 0.0
2017-Nov-10 22:00N 70°51' E 029°06'0 0.0
2017-Nov-10 21:30N 70°51' E 029°06'0 0.0
2017-Nov-10 21:00N 70°51' E 029°06'0 0.0
2017-Nov-10 20:30N 70°51' E 029°06'0 0.0
2017-Nov-10 20:00N 70°51' E 029°06'0 0.0
2017-Nov-10 19:30N 70°51' E 029°06'0 0.0
2017-Nov-10 19:00N 70°51' E 029°06'0 0.0
2017-Nov-10 18:30N 70°51' E 029°06'0 0.0
2017-Nov-10 18:00N 70°51' E 029°06'0 0.0
2017-Nov-10 17:30N 70°51' E 029°06'0 0.0
2017-Nov-10 17:00N 70°51' E 029°06'0 0.0
2017-Nov-10 16:30N 70°51' E 029°06'0 0.0
2017-Nov-10 16:00N 70°51' E 029°06'0 0.0
2017-Nov-10 15:30N 70°51' E 029°06'0 0.0
2017-Nov-10 15:00N 70°51' E 029°06'0 0.0
2017-Nov-10 14:30N 70°51' E 029°06'0 0.0
2017-Nov-10 14:00N 70°51' E 029°06'0 0.0
2017-Nov-10 13:27N 70°51' E 029°06'0 0.0
2017-Nov-10 13:00N 70°51' E 029°06'0 0.0
2017-Nov-10 12:30N 70°51' E 029°06'0 0.0
2017-Nov-10 12:00N 70°51' E 029°06'0 0.0
2017-Nov-10 11:30N 70°51' E 029°06'0 0.0
2017-Nov-10 11:00N 70°51' E 029°06'0 0.0
2017-Nov-10 10:30N 70°51' E 029°06'0 0.0
2017-Nov-10 10:00N 70°51' E 029°06'0 0.0
2017-Nov-10 09:30N 70°51' E 029°06'0 0.0
2017-Nov-10 09:00N 70°51' E 029°06'0 0.0
2017-Nov-10 08:30N 70°51' E 029°06'0 0.0
2017-Nov-10 08:00N 70°51' E 029°06'0 0.0
2017-Nov-10 07:30N 70°51' E 029°06'0 0.0
2017-Nov-10 06:06N 70°51' E 029°06'0 0.0
2017-Nov-10 06:00N 70°51' E 029°06'0 0.0
2017-Nov-10 05:30N 70°51' E 029°06'0 0.0
2017-Nov-10 05:00N 70°51' E 029°06'0 0.0
2017-Nov-10 04:30N 70°51' E 029°06'0 0.0
2017-Nov-10 04:00N 70°51' E 029°06'0 0.0
2017-Nov-10 03:30N 70°51' E 029°06'0 0.0
2017-Nov-10 03:00N 70°51' E 029°06'0 0.0
2017-Nov-10 02:28N 70°51' E 029°06'0 0.0
2017-Nov-10 01:58N 70°51' E 029°06'0 0.0
2017-Nov-10 01:28N 70°51' E 029°06'0 0.0
2017-Nov-10 00:57N 70°51' E 029°06'0 0.0
2017-Nov-10 00:30N 70°51' E 029°06'0 0.0
2017-Nov-10 00:00N 70°51' E 029°06'0 0.0
2017-Nov-09 23:30N 70°51' E 029°06'0 0.0
2017-Nov-09 23:00N 70°51' E 029°06'0 0.0
2017-Nov-09 22:27N 70°51' E 029°06'0 0.0
2017-Nov-09 22:00N 70°51' E 029°06'0 0.0
2017-Nov-09 21:30N 70°51' E 029°06'0 0.0
2017-Nov-09 20:57N 70°51' E 029°06'0 0.0
2017-Nov-09 20:30N 70°51' E 029°06'0 0.0
2017-Nov-09 20:00N 70°51' E 029°06'0 0.0
2017-Nov-09 19:30N 70°51' E 029°06'0 0.0
2017-Nov-09 19:00N 70°51' E 029°06'0 0.0
2017-Nov-09 18:30N 70°51' E 029°06'0 0.0
2017-Nov-09 18:00N 70°51' E 029°06'0 0.0
2017-Nov-09 17:30N 70°51' E 029°06'0 0.0
2017-Nov-09 17:00N 70°51' E 029°06'0 0.0
2017-Nov-09 16:30N 70°51' E 029°06'0 0.0
2017-Nov-09 16:00N 70°51' E 029°06'0 0.0
2017-Nov-09 15:30N 70°51' E 029°06'0 0.0
2017-Nov-09 15:00N 70°51' E 029°06'0 0.0
2017-Nov-09 14:30N 70°51' E 029°06'0 0.0
2017-Nov-09 14:00N 70°51' E 029°06'0 0.0
2017-Nov-09 13:30N 70°51' E 029°06'0 0.0
2017-Nov-09 13:00N 70°51' E 029°06'0 0.0
2017-Nov-09 12:30N 70°51' E 029°06'0 0.0
2017-Nov-09 12:00N 70°51' E 029°06'0 0.0
2017-Nov-09 11:30N 70°51' E 029°06'0 0.0
2017-Nov-09 11:00N 70°51' E 029°06'0 0.0
2017-Nov-09 10:30N 70°51' E 029°06'0 0.0
2017-Nov-09 10:00N 70°51' E 029°06'0 0.0
2017-Nov-09 09:30N 70°51' E 029°06'0 0.0
2017-Nov-09 09:00N 70°51' E 029°06'0 0.0
2017-Nov-09 08:30N 70°51' E 029°06'0 0.0
2017-Nov-09 08:00N 70°51' E 029°06'0 0.0
2017-Nov-09 07:30N 70°51' E 029°06'0 0.0
2017-Nov-09 06:59N 70°51' E 029°06'0 0.0
2017-Nov-09 06:29N 70°51' E 029°06'0 0.0
2017-Nov-09 05:59N 70°51' E 029°06'0 0.0
2017-Nov-09 05:29N 70°51' E 029°06'0 0.0
2017-Nov-09 04:59N 70°51' E 029°06'0 0.0
2017-Nov-09 04:29N 70°51' E 029°06'0 0.0
2017-Nov-09 03:59N 70°51' E 029°06'0 0.0
2017-Nov-09 03:29N 70°51' E 029°06'0 0.0
2017-Nov-09 02:59N 70°51' E 029°06'0 0.0
2017-Nov-09 02:29N 70°51' E 029°06'0 0.0
2017-Nov-09 01:59N 70°51' E 029°06'0 0.0
2017-Nov-09 01:29N 70°51' E 029°06'0 0.0
2017-Nov-09 00:59N 70°51' E 029°06'0 0.0
2017-Nov-09 00:29N 70°51' E 029°06'0 0.0
2017-Nov-08 23:59N 70°51' E 029°06'0 0.0
2017-Nov-08 23:29N 70°51' E 029°06'0 0.0
2017-Nov-08 22:59N 70°51' E 029°06'0 0.0
2017-Nov-08 22:29N 70°51' E 029°06'0 0.0
2017-Nov-08 21:59N 70°51' E 029°06'0 0.0
2017-Nov-08 21:30N 70°51' E 029°06'0 0.0
2017-Nov-08 21:00N 70°51' E 029°06'0 0.0
2017-Nov-08 20:30N 70°51' E 029°06'0 0.0
2017-Nov-08 20:00N 70°51' E 029°06'0 0.0
2017-Nov-08 19:30N 70°51' E 029°06'0 0.0
2017-Nov-08 19:00N 70°51' E 029°06'0 0.0
2017-Nov-08 18:29N 70°51' E 029°06'0 0.0
2017-Nov-08 17:59N 70°51' E 029°06'0 0.0
2017-Nov-08 17:23N 70°51' E 029°06'0 0.0
2017-Nov-08 16:59N 70°51' E 029°06'0 0.0
2017-Nov-08 16:29N 70°51' E 029°06'0 0.0
2017-Nov-08 15:59N 70°51' E 029°06'0 0.0
2017-Nov-08 15:29N 70°51' E 029°06'0 0.0
2017-Nov-08 14:59N 70°51' E 029°06'0 0.0
2017-Nov-08 14:29N 70°51' E 029°06'0 0.0
2017-Nov-08 13:47N 70°51' E 029°06'0 0.0
2017-Nov-08 13:29N 70°51' E 029°06'0 0.0
2017-Nov-08 12:35N 70°51' E 029°06'0 0.0
2017-Nov-08 12:20N 70°51' E 029°06'0 0.0
2017-Nov-08 11:47N 70°51' E 029°06'0 0.0
2017-Nov-08 09:05N 70°51' E 029°06'0 0.0
2017-Nov-08 08:59N 70°51' E 029°06'0 0.0
2017-Nov-08 08:29N 70°51' E 029°06'0 0.0
2017-Nov-08 07:59N 70°51' E 029°06'0 0.0
2017-Nov-08 07:26N 70°51' E 029°06'0 0.0
2017-Nov-08 06:59N 70°51' E 029°06'0 0.0
2017-Nov-08 06:26N 70°51' E 029°06'0 0.0
2017-Nov-08 05:56N 70°51' E 029°06'0 0.0
2017-Nov-08 05:26N 70°51' E 029°06'0 0.0
2017-Nov-08 04:59N 70°51' E 029°06'0 0.0
2017-Nov-08 04:29N 70°51' E 029°06'0 0.0
2017-Nov-08 03:59N 70°51' E 029°06'0 0.0
2017-Nov-08 03:29N 70°51' E 029°06'0 0.0
2017-Nov-08 02:59N 70°51' E 029°06'0 0.0
2017-Nov-08 02:29N 70°51' E 029°06'0 0.0
2017-Nov-08 01:59N 70°51' E 029°06'0 0.0
2017-Nov-08 01:29N 70°51' E 029°06'0 0.0
2017-Nov-08 00:59N 70°51' E 029°06'0 0.0
2017-Nov-08 00:26N 70°51' E 029°06'0 0.0
2017-Nov-07 22:38N 70°51' E 029°06'0 0.0
2017-Nov-07 22:29N 70°51' E 029°06'0 0.0
2017-Nov-07 21:59N 70°51' E 029°06'0 0.0
2017-Nov-07 21:29N 70°51' E 029°06'0 0.0
2017-Nov-07 20:59N 70°51' E 029°06'0 0.0
2017-Nov-07 20:29N 70°51' E 029°06'0 0.0
2017-Nov-07 19:59N 70°51' E 029°06'0 0.0
2017-Nov-07 19:29N 70°51' E 029°06'0 0.0
2017-Nov-07 18:59N 70°51' E 029°06'0 0.0
2017-Nov-07 18:29N 70°51' E 029°06'0 0.0
2017-Nov-07 17:59N 70°51' E 029°06'0 0.0
2017-Nov-07 17:29N 70°51' E 029°06'0 0.0
2017-Nov-07 16:59N 70°51' E 029°06'0 0.0
2017-Nov-07 16:29N 70°51' E 029°06'0 0.0
2017-Nov-07 15:59N 70°51' E 029°06'0 0.0
2017-Nov-07 15:29N 70°51' E 029°06'0 0.0
2017-Nov-07 14:59N 70°51' E 029°06'0 0.0
2017-Nov-07 14:29N 70°51' E 029°06'0 0.0
2017-Nov-07 13:59N 70°51' E 029°06'0 0.0
2017-Nov-07 13:29N 70°51' E 029°06'0 0.0
2017-Nov-07 12:59N 70°51' E 029°06'0 0.0
2017-Nov-07 12:28N 70°51' E 029°06'0 0.0
2017-Nov-07 11:58N 70°51' E 029°06'0 0.0
2017-Nov-07 11:28N 70°51' E 029°06'0 0.0
2017-Nov-07 10:58N 70°51' E 029°06'0 0.0
2017-Nov-07 10:28N 70°51' E 029°06'0 0.0
2017-Nov-07 09:58N 70°51' E 029°06'0 0.0
2017-Nov-07 09:28N 70°51' E 029°06'0 0.0
2017-Nov-07 08:58N 70°51' E 029°06'0 0.0
2017-Nov-07 08:28N 70°51' E 029°06'0 0.0
2017-Nov-07 07:58N 70°51' E 029°06'0 0.0
2017-Nov-07 07:28N 70°51' E 029°06'0 0.0
2017-Nov-07 06:55N 70°51' E 029°06'0 0.0
2017-Nov-07 06:28N 70°51' E 029°06'0 0.0
2017-Nov-07 05:58N 70°51' E 029°06'0 0.0
2017-Nov-07 05:28N 70°51' E 029°06'0 0.0
2017-Nov-07 04:58N 70°51' E 029°06'0 0.0
2017-Nov-07 04:28N 70°51' E 029°06'0 0.0
2017-Nov-07 03:58N 70°51' E 029°06'0 0.0
2017-Nov-07 03:28N 70°51' E 029°06'0 0.0
2017-Nov-07 02:55N 70°51' E 029°06'0 0.0
2017-Nov-07 02:28N 70°51' E 029°06'0 0.0
2017-Nov-07 01:58N 70°51' E 029°06'0 0.0
2017-Nov-07 01:28N 70°51' E 029°06'0 0.0
2017-Nov-07 00:58N 70°51' E 029°06'0 0.0
2017-Nov-07 00:28N 70°51' E 029°06'0 0.0
2017-Nov-06 23:58N 70°51' E 029°06'0 0.0
2017-Nov-06 23:28N 70°51' E 029°06'0 0.0
2017-Nov-06 22:58N 70°51' E 029°06'0 0.0
2017-Nov-06 22:28N 70°51' E 029°06'0 0.0
2017-Nov-06 21:58N 70°51' E 029°06'0 0.0
2017-Nov-06 21:28N 70°51' E 029°06'0 0.0
2017-Nov-06 20:58N 70°51' E 029°06'0 0.0
2017-Nov-06 20:25N 70°51' E 029°06'  
Track history (hours):
 
Tides and Currents Weather Stations Pressure Air Temp Water Temp Dewpoint Dewpoint Depression Visibility Wind Speed Wind Dir Waves Ship Positions

Vesthavet

Last reported at 2017-Nov-16 09:04 UTC. Time now 2017-Dec-11 00:25 UTC.
Position N 70°51' E 029°06'.
Warning: this ship's position is 24 days out of date.

Length 11 m.

Type: Fishing. MMSI: 257342820.

Date/timePositionNaut miles runAvg speedWind from/ knotsBaromVisibWave heightAir tempDewpointWater temp
2017-Nov-16 09:04N 70°51' E 029°06'0 0.0
2017-Nov-16 08:58N 70°51' E 029°06'0 0.0
2017-Nov-16 08:28N 70°51' E 029°06'0 0.0
2017-Nov-16 07:57N 70°51' E 029°06'0 0.0
2017-Nov-16 07:24N 70°51' E 029°06'0 0.0
2017-Nov-16 06:57N 70°51' E 029°06'0 0.0
2017-Nov-16 06:30N 70°51' E 029°06'0 0.0
2017-Nov-16 06:00N 70°51' E 029°06'0 0.0
2017-Nov-16 05:30N 70°51' E 029°06'0 0.0
2017-Nov-16 05:00N 70°51' E 029°06'0 0.0
2017-Nov-16 04:30N 70°51' E 029°06'0 0.0
2017-Nov-16 04:00N 70°51' E 029°06'0 0.0
2017-Nov-16 03:30N 70°51' E 029°06'0 0.0
2017-Nov-16 03:00N 70°51' E 029°06'0 0.0
2017-Nov-16 02:27N 70°51' E 029°06'0 0.0
2017-Nov-16 02:00N 70°51' E 029°06'0 0.0
2017-Nov-16 01:30N 70°51' E 029°06'0 0.0
2017-Nov-16 01:00N 70°51' E 029°06'0 0.0
2017-Nov-16 00:30N 70°51' E 029°06'0 0.0
2017-Nov-16 00:00N 70°51' E 029°06'0 0.0
2017-Nov-15 23:30N 70°51' E 029°06'0 0.0
2017-Nov-15 23:00N 70°51' E 029°06'0 0.0
2017-Nov-15 22:30N 70°51' E 029°06'0 0.0
2017-Nov-15 22:00N 70°51' E 029°06'0 0.0
2017-Nov-15 21:30N 70°51' E 029°06'0 0.0
2017-Nov-15 21:00N 70°51' E 029°06'0 0.0
2017-Nov-15 20:30N 70°51' E 029°06'0 0.0
2017-Nov-15 20:00N 70°51' E 029°06'0 0.0
2017-Nov-15 19:30N 70°51' E 029°06'0 0.0
2017-Nov-15 18:57N 70°51' E 029°06'0 0.0
2017-Nov-15 18:30N 70°51' E 029°06'0 0.0
2017-Nov-14 21:30N 70°51' E 029°06'0 0.0
2017-Nov-14 21:00N 70°51' E 029°06'0 0.0
2017-Nov-14 20:30N 70°51' E 029°06'0 0.0
2017-Nov-14 19:59N 70°51' E 029°06'0 0.0
2017-Nov-14 19:29N 70°51' E 029°06'0 0.0
2017-Nov-14 18:59N 70°51' E 029°06'0 0.0
2017-Nov-14 18:29N 70°51' E 029°06'0 0.0
2017-Nov-14 17:59N 70°51' E 029°06'0 0.0
2017-Nov-14 17:29N 70°51' E 029°06'0 0.0
2017-Nov-14 16:59N 70°51' E 029°06'0 0.0
2017-Nov-14 16:29N 70°51' E 029°06'0 0.0
2017-Nov-14 10:44N 70°51' E 029°06'0 0.0
2017-Nov-14 10:29N 70°51' E 029°06'0 0.0
2017-Nov-14 09:59N 70°51' E 029°06'0 0.0
2017-Nov-14 09:29N 70°51' E 029°06'0 0.0
2017-Nov-14 08:59N 70°51' E 029°06'0 0.0
2017-Nov-14 08:29N 70°51' E 029°06'0 0.0
2017-Nov-14 07:59N 70°51' E 029°06'0 0.0
2017-Nov-14 07:29N 70°51' E 029°06'0 0.0
2017-Nov-14 06:59N 70°51' E 029°06'0 0.0
2017-Nov-14 06:29N 70°51' E 029°06'0 0.0
2017-Nov-14 05:59N 70°51' E 029°06'0 0.0
2017-Nov-14 05:29N 70°51' E 029°06'0 0.0
2017-Nov-14 04:59N 70°51' E 029°06'0 0.0
2017-Nov-14 04:29N 70°51' E 029°06'0 0.0
2017-Nov-14 03:59N 70°51' E 029°06'0 0.0
2017-Nov-14 03:29N 70°51' E 029°06'0 0.0
2017-Nov-14 02:59N 70°51' E 029°06'0 0.0
2017-Nov-14 02:29N 70°51' E 029°06'0 0.0
2017-Nov-14 01:59N 70°51' E 029°06'0 0.0
2017-Nov-14 01:29N 70°51' E 029°06'0 0.0
2017-Nov-14 00:59N 70°51' E 029°06'0 0.0
2017-Nov-14 00:29N 70°51' E 029°06'0 0.0
2017-Nov-13 23:59N 70°51' E 029°06'0 0.0
2017-Nov-13 23:29N 70°51' E 029°06'0 0.0
2017-Nov-13 22:59N 70°51' E 029°06'0 0.0
2017-Nov-13 22:29N 70°51' E 029°06'0 0.0
2017-Nov-13 21:59N 70°51' E 029°06'10 0.5
2017-Nov-13 01:59N 70°53' E 029°36'3 7.1
2017-Nov-13 01:30N 70°52' E 029°25'4 7.4
2017-Nov-13 01:00N 70°52' E 029°14'3 5.2
2017-Nov-13 00:29N 70°52' E 029°06'0 0.2
2017-Nov-13 00:00N 70°51' E 029°06'0 0.0
2017-Nov-12 23:30N 70°51' E 029°06'0 0.0
2017-Nov-12 23:00N 70°51' E 029°06'0 0.0
2017-Nov-12 22:30N 70°51' E 029°06'0 0.0
2017-Nov-12 22:00N 70°51' E 029°06'0 0.0
2017-Nov-12 21:30N 70°51' E 029°06'0 0.0
2017-Nov-12 21:00N 70°51' E 029°06'0 0.0
2017-Nov-12 20:30N 70°51' E 029°06'0 0.0
2017-Nov-12 20:00N 70°51' E 029°06'0 0.0
2017-Nov-12 19:30N 70°51' E 029°06'0 0.0
2017-Nov-12 19:00N 70°51' E 029°06'0 0.0
2017-Nov-12 18:30N 70°51' E 029°06'0 0.0
2017-Nov-12 18:00N 70°51' E 029°06'0 0.0
2017-Nov-12 17:24N 70°51' E 029°06'0 0.0
2017-Nov-12 17:00N 70°51' E 029°06'0 0.0
2017-Nov-12 16:30N 70°51' E 029°06'0 0.0
2017-Nov-12 16:00N 70°51' E 029°06'0 0.0
2017-Nov-12 15:30N 70°51' E 029°06'0 0.0
2017-Nov-12 15:00N 70°51' E 029°06'0 0.0
2017-Nov-12 14:30N 70°51' E 029°06'0 0.0
2017-Nov-12 14:00N 70°51' E 029°06'0 0.0
2017-Nov-12 13:30N 70°51' E 029°06'0 0.0
2017-Nov-12 13:00N 70°51' E 029°06'0 0.0
2017-Nov-12 12:30N 70°51' E 029°06'0 0.0
2017-Nov-12 12:00N 70°51' E 029°06'0 0.0
2017-Nov-12 11:30N 70°51' E 029°06'0 0.0
2017-Nov-12 11:00N 70°51' E 029°06'0 0.0
2017-Nov-12 10:30N 70°51' E 029°06'0 0.0
2017-Nov-12 10:00N 70°51' E 029°06'0 0.0
2017-Nov-12 09:27N 70°51' E 029°06'0 0.0
2017-Nov-12 09:00N 70°51' E 029°06'0 0.0
2017-Nov-12 08:30N 70°51' E 029°06'0 0.0
2017-Nov-12 08:00N 70°51' E 029°06'0 0.0
2017-Nov-12 07:29N 70°51' E 029°06'0 0.0
2017-Nov-12 07:00N 70°51' E 029°06'0 0.0
2017-Nov-12 06:29N 70°51' E 029°06'0 0.0
2017-Nov-12 05:59N 70°51' E 029°06'0 0.0
2017-Nov-12 05:29N 70°51' E 029°06'0 0.0
2017-Nov-12 04:59N 70°51' E 029°06'0 0.0
2017-Nov-12 04:29N 70°51' E 029°06'0 0.0
2017-Nov-12 03:59N 70°51' E 029°06'0 0.0
2017-Nov-12 03:29N 70°51' E 029°06'0 0.0
2017-Nov-12 02:59N 70°51' E 029°06'0 0.0
2017-Nov-12 02:29N 70°51' E 029°06'0 0.0
2017-Nov-12 01:59N 70°51' E 029°06'0 0.0
2017-Nov-12 01:29N 70°51' E 029°06'0 0.0
2017-Nov-12 00:59N 70°51' E 029°06'0 0.0
2017-Nov-12 00:30N 70°51' E 029°06'0 0.0
2017-Nov-12 00:00N 70°51' E 029°06'0 0.0
2017-Nov-11 23:30N 70°51' E 029°06'0 0.0
2017-Nov-11 23:00N 70°51' E 029°06'0 0.0
2017-Nov-11 22:30N 70°51' E 029°06'0 0.0
2017-Nov-11 22:00N 70°51' E 029°06'0 0.0
2017-Nov-11 21:30N 70°51' E 029°06'0 0.0
2017-Nov-11 21:00N 70°51' E 029°06'0 0.0
2017-Nov-11 20:30N 70°51' E 029°06'0 0.0
2017-Nov-11 20:00N 70°51' E 029°06'0 0.0
2017-Nov-11 19:30N 70°51' E 029°06'0 0.0
2017-Nov-11 19:00N 70°51' E 029°06'0 0.0
2017-Nov-11 18:30N 70°51' E 029°06'0 0.0
2017-Nov-11 18:00N 70°51' E 029°06'0 0.0
2017-Nov-11 17:30N 70°51' E 029°06'0 0.0
2017-Nov-11 17:00N 70°51' E 029°06'0 0.0
2017-Nov-11 16:30N 70°51' E 029°06'0 0.0
2017-Nov-11 16:00N 70°51' E 029°06'0 0.0
2017-Nov-11 15:30N 70°51' E 029°06'0 0.0
2017-Nov-11 15:00N 70°51' E 029°06'0 0.0
2017-Nov-11 14:30N 70°51' E 029°06'0 0.0
2017-Nov-11 14:00N 70°51' E 029°06'0 0.0
2017-Nov-11 13:30N 70°51' E 029°06'0 0.0
2017-Nov-11 13:00N 70°51' E 029°06'0 0.0
2017-Nov-11 12:30N 70°51' E 029°06'0 0.0
2017-Nov-11 12:00N 70°51' E 029°06'0 0.0
2017-Nov-11 11:30N 70°51' E 029°06'0 0.0
2017-Nov-11 11:00N 70°51' E 029°06'0 0.0
2017-Nov-11 10:30N 70°51' E 029°06'0 0.0
2017-Nov-11 10:00N 70°51' E 029°06'0 0.0
2017-Nov-11 09:30N 70°51' E 029°06'0 0.0
2017-Nov-11 09:00N 70°51' E 029°06'0 0.0
2017-Nov-11 08:30N 70°51' E 029°06'0 0.0
2017-Nov-11 08:00N 70°51' E 029°06'0 0.0
2017-Nov-11 07:30N 70°51' E 029°06'0 0.0
2017-Nov-11 07:00N 70°51' E 029°06'0 0.0
2017-Nov-11 06:30N 70°51' E 029°06'0 0.0
2017-Nov-11 06:00N 70°51' E 029°06'0 0.0
2017-Nov-11 05:30N 70°51' E 029°06'0 0.0
2017-Nov-11 05:00N 70°51' E 029°06'0 0.0
2017-Nov-11 04:30N 70°51' E 029°06'0 0.0
2017-Nov-11 04:00N 70°51' E 029°06'0 0.0
2017-Nov-11 03:30N 70°51' E 029°06'0 0.0
2017-Nov-11 03:00N 70°51' E 029°06'0 0.0
2017-Nov-11 02:30N 70°51' E 029°06'0 0.0
2017-Nov-11 02:00N 70°51' E 029°06'0 0.0
2017-Nov-11 01:30N 70°51' E 029°06'0 0.0
2017-Nov-11 01:00N 70°51' E 029°06'0 0.0
2017-Nov-11 00:30N 70°51' E 029°06'0 0.0
2017-Nov-11 00:00N 70°51' E 029°06'0 0.0
2017-Nov-10 23:30N 70°51' E 029°06'0 0.0
2017-Nov-10 23:00N 70°51' E 029°06'0 0.0
2017-Nov-10 22:30N 70°51' E 029°06'0 0.0
2017-Nov-10 22:00N 70°51' E 029°06'0 0.0
2017-Nov-10 21:30N 70°51' E 029°06'0 0.0
2017-Nov-10 21:00N 70°51' E 029°06'0 0.0
2017-Nov-10 20:30N 70°51' E 029°06'0 0.0
2017-Nov-10 20:00N 70°51' E 029°06'0 0.0
2017-Nov-10 19:30N 70°51' E 029°06'0 0.0
2017-Nov-10 19:00N 70°51' E 029°06'0 0.0
2017-Nov-10 18:30N 70°51' E 029°06'0 0.0
2017-Nov-10 18:00N 70°51' E 029°06'0 0.0
2017-Nov-10 17:30N 70°51' E 029°06'0 0.0
2017-Nov-10 17:00N 70°51' E 029°06'0 0.0
2017-Nov-10 16:30N 70°51' E 029°06'0 0.0
2017-Nov-10 16:00N 70°51' E 029°06'0 0.0
2017-Nov-10 15:30N 70°51' E 029°06'0 0.0
2017-Nov-10 15:00N 70°51' E 029°06'0 0.0
2017-Nov-10 14:30N 70°51' E 029°06'0 0.0
2017-Nov-10 14:00N 70°51' E 029°06'0 0.0
2017-Nov-10 13:27N 70°51' E 029°06'0 0.0
2017-Nov-10 13:00N 70°51' E 029°06'0 0.0
2017-Nov-10 12:30N 70°51' E 029°06'0 0.0
2017-Nov-10 12:00N 70°51' E 029°06'0 0.0
2017-Nov-10 11:30N 70°51' E 029°06'0 0.0
2017-Nov-10 11:00N 70°51' E 029°06'0 0.0
2017-Nov-10 10:30N 70°51' E 029°06'0 0.0
2017-Nov-10 10:00N 70°51' E 029°06'0 0.0
2017-Nov-10 09:30N 70°51' E 029°06'0 0.0
2017-Nov-10 09:00N 70°51' E 029°06'0 0.0
2017-Nov-10 08:30N 70°51' E 029°06'0 0.0
2017-Nov-10 08:00N 70°51' E 029°06'0 0.0
2017-Nov-10 07:30N 70°51' E 029°06'0 0.0
2017-Nov-10 06:06N 70°51' E 029°06'0 0.0
2017-Nov-10 06:00N 70°51' E 029°06'0 0.0
2017-Nov-10 05:30N 70°51' E 029°06'0 0.0
2017-Nov-10 05:00N 70°51' E 029°06'0 0.0
2017-Nov-10 04:30N 70°51' E 029°06'0 0.0
2017-Nov-10 04:00N 70°51' E 029°06'0 0.0
2017-Nov-10 03:30N 70°51' E 029°06'0 0.0
2017-Nov-10 03:00N 70°51' E 029°06'0 0.0
2017-Nov-10 02:28N 70°51' E 029°06'0 0.0
2017-Nov-10 01:58N 70°51' E 029°06'0 0.0
2017-Nov-10 01:28N 70°51' E 029°06'0 0.0
2017-Nov-10 00:57N 70°51' E 029°06'0 0.0
2017-Nov-10 00:30N 70°51' E 029°06'0 0.0
2017-Nov-10 00:00N 70°51' E 029°06'0 0.0
2017-Nov-09 23:30N 70°51' E 029°06'0 0.0
2017-Nov-09 23:00N 70°51' E 029°06'0 0.0
2017-Nov-09 22:27N 70°51' E 029°06'0 0.0
2017-Nov-09 22:00N 70°51' E 029°06'0 0.0
2017-Nov-09 21:30N 70°51' E 029°06'0 0.0
2017-Nov-09 20:57N 70°51' E 029°06'0 0.0
2017-Nov-09 20:30N 70°51' E 029°06'0 0.0
2017-Nov-09 20:00N 70°51' E 029°06'0 0.0
2017-Nov-09 19:30N 70°51' E 029°06'0 0.0
2017-Nov-09 19:00N 70°51' E 029°06'0 0.0
2017-Nov-09 18:30N 70°51' E 029°06'0 0.0
2017-Nov-09 18:00N 70°51' E 029°06'0 0.0
2017-Nov-09 17:30N 70°51' E 029°06'0 0.0
2017-Nov-09 17:00N 70°51' E 029°06'0 0.0
2017-Nov-09 16:30N 70°51' E 029°06'0 0.0
2017-Nov-09 16:00N 70°51' E 029°06'0 0.0
2017-Nov-09 15:30N 70°51' E 029°06'0 0.0
2017-Nov-09 15:00N 70°51' E 029°06'0 0.0
2017-Nov-09 14:30N 70°51' E 029°06'0 0.0
2017-Nov-09 14:00N 70°51' E 029°06'0 0.0
2017-Nov-09 13:30N 70°51' E 029°06'0 0.0
2017-Nov-09 13:00N 70°51' E 029°06'0 0.0
2017-Nov-09 12:30N 70°51' E 029°06'0 0.0
2017-Nov-09 12:00N 70°51' E 029°06'0 0.0
2017-Nov-09 11:30N 70°51' E 029°06'0 0.0
2017-Nov-09 11:00N 70°51' E 029°06'0 0.0
2017-Nov-09 10:30N 70°51' E 029°06'0 0.0
2017-Nov-09 10:00N 70°51' E 029°06'0 0.0
2017-Nov-09 09:30N 70°51' E 029°06'0 0.0
2017-Nov-09 09:00N 70°51' E 029°06'0 0.0
2017-Nov-09 08:30N 70°51' E 029°06'0 0.0
2017-Nov-09 08:00N 70°51' E 029°06'0 0.0
2017-Nov-09 07:30N 70°51' E 029°06'0 0.0
2017-Nov-09 06:59N 70°51' E 029°06'0 0.0
2017-Nov-09 06:29N 70°51' E 029°06'0 0.0
2017-Nov-09 05:59N 70°51' E 029°06'0 0.0
2017-Nov-09 05:29N 70°51' E 029°06'0 0.0
2017-Nov-09 04:59N 70°51' E 029°06'0 0.0
2017-Nov-09 04:29N 70°51' E 029°06'0 0.0
2017-Nov-09 03:59N 70°51' E 029°06'0 0.0
2017-Nov-09 03:29N 70°51' E 029°06'0 0.0
2017-Nov-09 02:59N 70°51' E 029°06'0 0.0
2017-Nov-09 02:29N 70°51' E 029°06'0 0.0
2017-Nov-09 01:59N 70°51' E 029°06'0 0.0
2017-Nov-09 01:29N 70°51' E 029°06'0 0.0
2017-Nov-09 00:59N 70°51' E 029°06'0 0.0
2017-Nov-09 00:29N 70°51' E 029°06'0 0.0
2017-Nov-08 23:59N 70°51' E 029°06'0 0.0
2017-Nov-08 23:29N 70°51' E 029°06'0 0.0
2017-Nov-08 22:59N 70°51' E 029°06'0 0.0
2017-Nov-08 22:29N 70°51' E 029°06'0 0.0
2017-Nov-08 21:59N 70°51' E 029°06'0 0.0
2017-Nov-08 21:30N 70°51' E 029°06'0 0.0
2017-Nov-08 21:00N 70°51' E 029°06'0 0.0
2017-Nov-08 20:30N 70°51' E 029°06'0 0.0
2017-Nov-08 20:00N 70°51' E 029°06'0 0.0
2017-Nov-08 19:30N 70°51' E 029°06'0 0.0
2017-Nov-08 19:00N 70°51' E 029°06'0 0.0
2017-Nov-08 18:29N 70°51' E 029°06'0 0.0
2017-Nov-08 17:59N 70°51' E 029°06'0 0.0
2017-Nov-08 17:23N 70°51' E 029°06'0 0.0
2017-Nov-08 16:59N 70°51' E 029°06'0 0.0
2017-Nov-08 16:29N 70°51' E 029°06'0 0.0
2017-Nov-08 15:59N 70°51' E 029°06'0 0.0
2017-Nov-08 15:29N 70°51' E 029°06'0 0.0
2017-Nov-08 14:59N 70°51' E 029°06'0 0.0
2017-Nov-08 14:29N 70°51' E 029°06'0 0.0
2017-Nov-08 13:47N 70°51' E 029°06'0 0.0
2017-Nov-08 13:29N 70°51' E 029°06'0 0.0
2017-Nov-08 12:35N 70°51' E 029°06'0 0.0
2017-Nov-08 12:20N 70°51' E 029°06'0 0.0
2017-Nov-08 11:47N 70°51' E 029°06'0 0.0
2017-Nov-08 09:05N 70°51' E 029°06'0 0.0
2017-Nov-08 08:59N 70°51' E 029°06'0 0.0
2017-Nov-08 08:29N 70°51' E 029°06'0 0.0
2017-Nov-08 07:59N 70°51' E 029°06'0 0.0
2017-Nov-08 07:26N 70°51' E 029°06'0 0.0
2017-Nov-08 06:59N 70°51' E 029°06'0 0.0
2017-Nov-08 06:26N 70°51' E 029°06'0 0.0
2017-Nov-08 05:56N 70°51' E 029°06'0 0.0
2017-Nov-08 05:26N 70°51' E 029°06'0 0.0
2017-Nov-08 04:59N 70°51' E 029°06'0 0.0
2017-Nov-08 04:29N 70°51' E 029°06'0 0.0
2017-Nov-08 03:59N 70°51' E 029°06'0 0.0
2017-Nov-08 03:29N 70°51' E 029°06'0 0.0
2017-Nov-08 02:59N 70°51' E 029°06'0 0.0
2017-Nov-08 02:29N 70°51' E 029°06'0 0.0
2017-Nov-08 01:59N 70°51' E 029°06'0 0.0
2017-Nov-08 01:29N 70°51' E 029°06'0 0.0
2017-Nov-08 00:59N 70°51' E 029°06'0 0.0
2017-Nov-08 00:26N 70°51' E 029°06'0 0.0
2017-Nov-07 22:38N 70°51' E 029°06'0 0.0
2017-Nov-07 22:29N 70°51' E 029°06'0 0.0
2017-Nov-07 21:59N 70°51' E 029°06'0 0.0
2017-Nov-07 21:29N 70°51' E 029°06'0 0.0
2017-Nov-07 20:59N 70°51' E 029°06'0 0.0
2017-Nov-07 20:29N 70°51' E 029°06'0 0.0
2017-Nov-07 19:59N 70°51' E 029°06'0 0.0
2017-Nov-07 19:29N 70°51' E 029°06'0 0.0
2017-Nov-07 18:59N 70°51' E 029°06'0 0.0
2017-Nov-07 18:29N 70°51' E 029°06'0 0.0
2017-Nov-07 17:59N 70°51' E 029°06'0 0.0
2017-Nov-07 17:29N 70°51' E 029°06'0 0.0
2017-Nov-07 16:59N 70°51' E 029°06'0 0.0
2017-Nov-07 16:29N 70°51' E 029°06'0 0.0
2017-Nov-07 15:59N 70°51' E 029°06'0 0.0
2017-Nov-07 15:29N 70°51' E 029°06'0 0.0
2017-Nov-07 14:59N 70°51' E 029°06'0 0.0
2017-Nov-07 14:29N 70°51' E 029°06'0 0.0
2017-Nov-07 13:59N 70°51' E 029°06'0 0.0
2017-Nov-07 13:29N 70°51' E 029°06'0 0.0
2017-Nov-07 12:59N 70°51' E 029°06'0 0.0
2017-Nov-07 12:28N 70°51' E 029°06'0 0.0
2017-Nov-07 11:58N 70°51' E 029°06'0 0.0
2017-Nov-07 11:28N 70°51' E 029°06'0 0.0
2017-Nov-07 10:58N 70°51' E 029°06'0 0.0
2017-Nov-07 10:28N 70°51' E 029°06'0 0.0
2017-Nov-07 09:58N 70°51' E 029°06'0 0.0
2017-Nov-07 09:28N 70°51' E 029°06'0 0.0
2017-Nov-07 08:58N 70°51' E 029°06'0 0.0
2017-Nov-07 08:28N 70°51' E 029°06'0 0.0
2017-Nov-07 07:58N 70°51' E 029°06'0 0.0
2017-Nov-07 07:28N 70°51' E 029°06'0 0.0
2017-Nov-07 06:55N 70°51' E 029°06'0 0.0
2017-Nov-07 06:28N 70°51' E 029°06'0 0.0
2017-Nov-07 05:58N 70°51' E 029°06'0 0.0
2017-Nov-07 05:28N 70°51' E 029°06'0 0.0
2017-Nov-07 04:58N 70°51' E 029°06'0 0.0
2017-Nov-07 04:28N 70°51' E 029°06'0 0.0
2017-Nov-07 03:58N 70°51' E 029°06'0 0.0
2017-Nov-07 03:28N 70°51' E 029°06'0 0.0
2017-Nov-07 02:55N 70°51' E 029°06'0 0.0
2017-Nov-07 02:28N 70°51' E 029°06'0 0.0
2017-Nov-07 01:58N 70°51' E 029°06'0 0.0
2017-Nov-07 01:28N 70°51' E 029°06'0 0.0
2017-Nov-07 00:58N 70°51' E 029°06'0 0.0
2017-Nov-07 00:28N 70°51' E 029°06'0 0.0
2017-Nov-06 23:58N 70°51' E 029°06'0 0.0
2017-Nov-06 23:28N 70°51' E 029°06'0 0.0
2017-Nov-06 22:58N 70°51' E 029°06'0 0.0
2017-Nov-06 22:28N 70°51' E 029°06'0 0.0
2017-Nov-06 21:58N 70°51' E 029°06'0 0.0
2017-Nov-06 21:28N 70°51' E 029°06'0 0.0
2017-Nov-06 20:58N 70°51' E 029°06'0 0.0
2017-Nov-06 20:25N 70°51' E 029°06'  

Dump ship's entire track history